Time;durP1;ratioP1;P1;durP2;ratioP2;P2;SDS_P1;SDS_P2;PMS_P1;PMS_P2;Temp;Humidity;BMP_temperature;BMP_pressure;BME280_temperature;BME280_humidity;BME280_pressure;Samples;Min_cycle;Max_cycle;Signal;HPM_P1;HPM_P2
2023/10/06 00:00:09;;;;;;;;;;;;;;;27.56;36.02;101329.88;5077394;28;891;-30
2023/10/06 00:02:35;;;;;;;;;;;;;;;27.47;36.28;101320.13;5077559;28;1041;-32
2023/10/06 00:05:01;;;;;;;;;;;;;;;27.40;36.15;101319.97;5077259;28;1046;-31
2023/10/06 00:07:26;;;;;;;;;;;;;;;27.50;36.00;101319.78;5077415;28;1125;-31
2023/10/06 00:09:54;;;;;;;;;;;;;;;27.48;36.14;101313.69;5076929;28;1930;-32
2023/10/06 00:12:20;;;;;;;;;;;;;;;27.47;36.11;101314.72;5077479;28;2502;-30
2023/10/06 00:14:48;;;;;;;;;;;;;;;27.41;36.15;101315.41;5076995;28;1022;-34
2023/10/06 00:17:17;;;;;;;;;;;;;;;27.45;35.91;101317.59;5077233;28;1078;-33
2023/10/06 00:19:47;;;;;;;;;;;;;;;27.48;35.82;101310.97;5076563;28;1125;-33
2023/10/06 00:22:17;;;;;;;;;;;;;;;27.45;35.83;101308.63;5075226;28;1242;-32
2023/10/06 00:24:47;;;;;;;;;;;;;;;27.45;35.97;101306.78;5076749;28;1054;-31
2023/10/06 00:27:13;;;;;;;;;;;;;;;27.51;35.65;101310.63;5077408;28;1136;-31
2023/10/06 00:29:39;;;;;;;;;;;;;;;27.40;36.01;101298.34;5075259;28;1921;-35
2023/10/06 00:32:23;;;;;;;;;;;;;;;27.41;35.83;101301.91;5076457;28;1181;-30
2023/10/06 00:35:11;;;;;;;;;;;;;;;27.35;35.86;101309.66;5076207;28;1205;-30
2023/10/06 00:37:38;;;;;;;;;;;;;;;27.36;35.64;101300.53;5076715;28;1062;-32
2023/10/06 00:40:10;;;;;;;;;;;;;;;27.45;36.03;101303.22;5076647;28;1111;-29
2023/10/06 00:42:37;;;;;;;;;;;;;;;27.43;35.97;101298.00;5084889;28;2245;-31
2023/10/06 00:45:05;;;;;;;;;;;;;;;27.34;35.65;101293.63;5076688;28;1240;-32
2023/10/06 00:47:38;;;;;;;;;;;;;;;27.43;35.30;101300.69;5074713;28;1125;-33
2023/10/06 00:50:14;;;;;;;;;;;;;;;27.38;35.45;101298.50;5076638;28;1984;-30
2023/10/06 00:52:40;;;;;;;;;;;;;;;27.33;35.51;101290.06;5076642;28;1137;-31
2023/10/06 00:55:10;;;;;;;;;;;;;;;27.34;35.52;101305.25;5074752;28;1095;-32
2023/10/06 00:57:36;;;;;;;;;;;;;;;27.34;35.68;101294.47;5076501;28;1121;-29
2023/10/06 01:00:03;;;;;;;;;;;;;;;27.29;35.59;101298.69;5074972;28;889;-29
2023/10/06 01:02:29;;;;;;;;;;;;;;;27.38;35.70;101289.56;5075955;28;1099;-30
2023/10/06 01:04:55;;;;;;;;;;;;;;;27.30;35.57;101282.31;5076469;28;987;-29
2023/10/06 01:07:24;;;;;;;;;;;;;;;27.38;35.73;101285.00;5075726;28;1007;-30
2023/10/06 01:09:56;;;;;;;;;;;;;;;27.42;35.42;101287.34;5076071;28;1983;-29
2023/10/06 01:12:23;;;;;;;;;;;;;;;27.42;35.27;101285.50;5086270;28;1845;-31
2023/10/06 01:14:51;;;;;;;;;;;;;;;27.32;35.40;101290.25;5081688;28;1018;-36
2023/10/06 01:17:17;;;;;;;;;;;;;;;27.28;36.01;101278.94;5074805;28;1301;-29
2023/10/06 01:19:49;;;;;;;;;;;;;;;27.31;35.99;101284.00;5076059;28;1059;-32
2023/10/06 01:22:30;;;;;;;;;;;;;;;27.39;35.25;101283.16;5076084;28;999;-33
2023/10/06 01:24:58;;;;;;;;;;;;;;;27.18;35.44;101281.81;5075829;28;872;-30
2023/10/06 01:27:26;;;;;;;;;;;;;;;27.21;35.81;101277.97;5074938;28;1327;-30
2023/10/06 01:32:41;;;;;;;;;;;;;;;27.20;35.73;101266.31;5076138;28;1115;-29
2023/10/06 01:35:12;;;;;;;;;;;;;;;27.26;35.69;101267.47;5074233;28;1181;-30
2023/10/06 01:37:39;;;;;;;;;;;;;;;27.26;35.90;101271.00;5076304;28;999;-30
2023/10/06 01:40:14;;;;;;;;;;;;;;;27.23;35.58;101274.06;5108038;28;1108;-32
2023/10/06 01:42:40;;;;;;;;;;;;;;;27.24;35.64;101272.22;5075352;28;1857;-29
2023/10/06 01:45:14;;;;;;;;;;;;;;;27.27;35.77;101274.56;5078149;28;1099;-30
2023/10/06 01:47:40;;;;;;;;;;;;;;;27.33;35.46;101279.28;5095291;28;1111;-31
2023/10/06 01:50:06;;;;;;;;;;;;;;;27.25;35.49;101280.13;5099834;28;1894;-34
2023/10/06 01:52:32;;;;;;;;;;;;;;;27.21;35.64;101277.97;5085862;28;1106;-30
2023/10/06 01:55:03;;;;;;;;;;;;;;;27.23;35.85;101273.22;5100209;28;979;-32
2023/10/06 01:57:29;;;;;;;;;;;;;;;27.28;35.40;101273.53;5094451;28;1027;-32
2023/10/06 01:59:54;;;;;;;;;;;;;;;27.23;35.87;101278.59;5065038;28;1272;-31
2023/10/06 02:02:23;;;;;;;;;;;;;;;27.15;35.99;101287.56;5092792;28;1062;-34
2023/10/06 02:04:50;;;;;;;;;;;;;;;27.37;35.29;101282.47;5079711;28;1034;-32
2023/10/06 02:07:18;;;;;;;;;;;;;;;27.26;35.83;101281.81;5099163;28;1035;-32
2023/10/06 02:09:44;;;;;;;;;;;;;;;27.21;35.97;101277.97;5086111;28;1967;-29
2023/10/06 02:12:09;;;;;;;;;;;;;;;27.07;36.18;101276.78;5095928;28;2195;-33
2023/10/06 02:14:35;;;;;;;;;;;;;;;27.12;35.97;101279.81;5081093;28;1317;-29
2023/10/06 02:17:08;;;;;;;;;;;;;;;27.01;36.13;101272.84;5054862;28;1223;-30
2023/10/06 02:19:34;;;;;;;;;;;;;;;27.03;35.99;101273.56;5099322;28;1062;-33
2023/10/06 02:21:59;;;;;;;;;;;;;;;26.99;36.13;101273.03;5080882;28;1066;-33
2023/10/06 02:24:25;;;;;;;;;;;;;;;27.06;35.93;101275.91;5094961;28;1098;-33
2023/10/06 02:26:57;;;;;;;;;;;;;;;27.10;35.85;101268.34;5068911;28;1214;-35
2023/10/06 02:29:23;;;;;;;;;;;;;;;27.05;35.89;101274.25;5085839;28;1918;-31
2023/10/06 02:31:49;;;;;;;;;;;;;;;27.11;36.12;101264.63;5099452;28;1112;-30
2023/10/06 02:34:56;;;;;;;;;;;;;;;27.06;35.74;101265.13;5083554;28;1011;-34
2023/10/06 02:37:06;;;;;;;;;;;;;;;27.17;35.77;101261.25;5075985;28;1605;-33
2023/10/06 02:39:34;;;;;;;;;;;;;;;27.19;35.70;101263.78;5093185;28;1074;-31
2023/10/06 02:42:07;;;;;;;;;;;;;;;27.02;35.82;101261.09;5083944;28;1926;-31
2023/10/06 02:44:37;;;;;;;;;;;;;;;26.94;36.08;101259.22;5067844;28;1149;-31
2023/10/06 02:47:04;;;;;;;;;;;;;;;27.05;35.79;101262.59;5078893;28;1050;-33
2023/10/06 02:49:35;;;;;;;;;;;;;;;27.09;35.38;101251.28;5061341;28;1979;-34
2023/10/06 02:52:01;;;;;;;;;;;;;;;27.02;35.54;101256.53;5074412;28;1098;-31
2023/10/06 02:54:29;;;;;;;;;;;;;;;27.05;35.42;101251.78;5091460;28;1079;-31
2023/10/06 02:56:55;;;;;;;;;;;;;;;27.03;35.41;101249.25;5078889;28;1085;-33
2023/10/06 02:59:21;;;;;;;;;;;;;;;27.05;35.61;101249.94;5091490;28;1118;-29
2023/10/06 03:01:51;;;;;;;;;;;;;;;27.05;35.72;101249.09;5066205;28;1082;-31
2023/10/06 03:04:17;;;;;;;;;;;;;;;26.97;36.09;101248.06;5078374;28;979;-32
2023/10/06 03:06:52;;;;;;;;;;;;;;;27.16;35.72;101248.75;5107359;28;1098;-32
2023/10/06 03:09:18;;;;;;;;;;;;;;;27.05;35.95;101246.38;5060105;28;1902;-34
2023/10/06 03:11:49;;;;;;;;;;;;;;;26.99;35.88;101251.44;5062530;28;2345;-32
2023/10/06 03:14:24;;;;;;;;;;;;;;;27.01;36.14;101235.94;5087991;28;1026;-30
2023/10/06 03:16:51;;;;;;;;;;;;;;;27.06;34.86;101238.13;5077678;28;1065;-30
2023/10/06 03:19:21;;;;;;;;;;;;;;;27.08;35.01;101237.94;5086208;28;1058;-33
2023/10/06 03:21:48;;;;;;;;;;;;;;;27.06;35.08;101235.41;5079632;28;1107;-34
2023/10/06 03:24:31;;;;;;;;;;;;;;;27.04;34.90;101232.06;5073452;28;2239;-34
2023/10/06 03:27:12;;;;;;;;;;;;;;;27.02;35.75;101234.09;5064199;28;1264;-33
2023/10/06 03:29:55;;;;;;;;;;;;;;;27.05;35.97;101241.84;5080021;28;1910;-29
2023/10/06 03:32:32;;;;;;;;;;;;;;;27.11;35.59;101237.63;5079842;28;1395;-29
2023/10/06 03:34:59;;;;;;;;;;;;;;;27.19;35.87;101243.03;5081129;28;1093;-33
2023/10/06 03:40:22;;;;;;;;;;;;;;;27.08;35.96;101237.94;5081592;28;1331;-30
2023/10/06 03:42:48;;;;;;;;;;;;;;;27.17;35.83;101242.34;5059200;28;1868;-30
2023/10/06 03:45:31;;;;;;;;;;;;;;;26.71;35.72;101238.28;5067511;28;1327;-33
2023/10/06 03:48:10;;;;;;;;;;;;;;;25.92;37.01;101234.06;5078950;28;1914;-32
2023/10/06 03:50:39;;;;;;;;;;;;;;;25.73;36.91;101230.63;5110392;28;1349;-31
2023/10/06 03:53:08;;;;;;;;;;;;;;;26.22;37.73;101241.72;5081090;28;1064;-33
2023/10/06 03:55:45;;;;;;;;;;;;;;;26.72;36.47;101241.84;5080588;28;1077;-28
2023/10/06 03:58:12;;;;;;;;;;;;;;;26.80;36.40;101236.44;5077039;28;1174;-29
2023/10/06 04:00:41;;;;;;;;;;;;;;;26.84;36.26;101250.44;5076351;28;1003;-33
2023/10/06 04:03:07;;;;;;;;;;;;;;;26.47;36.15;101249.91;5076491;28;984;-34
2023/10/06 04:05:37;;;;;;;;;;;;;;;26.52;36.64;101255.66;5076568;28;1121;-35
2023/10/06 04:08:14;;;;;;;;;;;;;;;26.64;35.84;101248.91;5075785;28;1973;-30
2023/10/06 04:10:42;;;;;;;;;;;;;;;26.65;35.20;101249.75;5064228;28;1004;-33
2023/10/06 04:13:08;;;;;;;;;;;;;;;26.65;35.67;101249.75;5078195;28;2616;-30
2023/10/06 04:15:38;;;;;;;;;;;;;;;26.68;36.00;101245.84;5077444;28;991;-31
2023/10/06 04:18:10;;;;;;;;;;;;;;;26.64;36.15;101250.78;5077168;28;1126;-30
2023/10/06 04:20:36;;;;;;;;;;;;;;;26.69;36.03;101253.81;5077232;28;1087;-34
2023/10/06 04:23:02;;;;;;;;;;;;;;;26.70;36.19;101257.34;5076691;28;1046;-31
2023/10/06 04:25:28;;;;;;;;;;;;;;;26.69;35.95;101255.66;5077167;28;848;-32
2023/10/06 04:27:54;;;;;;;;;;;;;;;26.65;35.74;101256.00;5076870;28;1979;-32
2023/10/06 04:30:19;;;;;;;;;;;;;;;26.75;35.63;101257.69;5076794;28;994;-30
2023/10/06 04:32:45;;;;;;;;;;;;;;;26.73;36.10;101263.25;5077259;28;1058;-30
2023/10/06 04:35:19;;;;;;;;;;;;;;;26.88;35.26;101266.13;5076367;28;1089;-32
2023/10/06 04:37:46;;;;;;;;;;;;;;;26.76;35.55;101265.59;5076721;28;968;-31
2023/10/06 04:40:16;;;;;;;;;;;;;;;26.64;35.74;101267.78;5077065;28;1148;-29
2023/10/06 04:42:42;;;;;;;;;;;;;;;26.60;35.10;101274.53;5076184;28;1863;-34
2023/10/06 04:45:12;;;;;;;;;;;;;;;26.64;35.13;101273.19;5075007;28;1104;-32
2023/10/06 04:47:44;;;;;;;;;;;;;;;26.60;35.28;101265.59;5076262;28;1095;-29
2023/10/06 04:50:09;;;;;;;;;;;;;;;26.53;35.13;101276.22;5076052;28;1910;-33
2023/10/06 04:52:39;;;;;;;;;;;;;;;26.58;35.53;101281.94;5076230;28;1098;-34
2023/10/06 04:55:05;;;;;;;;;;;;;;;26.52;35.93;101285.31;5077053;28;1523;-32
2023/10/06 04:57:31;;;;;;;;;;;;;;;26.50;35.96;101285.50;5076190;28;1117;-29
2023/10/06 04:59:58;;;;;;;;;;;;;;;26.52;35.68;101280.78;5076095;28;1046;-32
2023/10/06 05:02:24;;;;;;;;;;;;;;;26.55;35.88;101281.44;5071812;28;1211;-34
2023/10/06 05:04:51;;;;;;;;;;;;;;;26.63;35.88;101285.00;5066234;28;1039;-28
2023/10/06 05:07:16;;;;;;;;;;;;;;;26.79;36.06;101291.44;5069995;28;1265;-34
2023/10/06 05:09:42;;;;;;;;;;;;;;;26.70;36.25;101295.13;5080413;28;1995;-33
2023/10/06 05:12:09;;;;;;;;;;;;;;;26.69;36.00;101286.19;5075924;28;2345;-32
2023/10/06 05:14:35;;;;;;;;;;;;;;;26.69;36.15;101291.59;5075762;28;918;-30
2023/10/06 05:17:01;;;;;;;;;;;;;;;26.72;36.05;101293.97;5076299;28;1129;-31
2023/10/06 05:19:27;;;;;;;;;;;;;;;26.69;36.49;101299.69;5074694;28;1073;-33
2023/10/06 05:21:53;;;;;;;;;;;;;;;26.66;36.61;101310.78;5076610;28;1139;-31
2023/10/06 05:24:18;;;;;;;;;;;;;;;26.72;36.68;101312.00;5075975;28;1003;-31
2023/10/06 05:26:44;;;;;;;;;;;;;;;26.82;36.10;101315.38;5076031;28;913;-33
2023/10/06 05:29:14;;;;;;;;;;;;;;;26.70;36.71;101309.47;5075655;28;1976;-30
2023/10/06 05:31:40;;;;;;;;;;;;;;;26.80;36.86;101317.41;5075635;28;1034;-31
2023/10/06 05:34:07;;;;;;;;;;;;;;;26.70;36.85;101317.56;5075918;28;1057;-33
2023/10/06 05:36:33;;;;;;;;;;;;;;;26.85;36.54;101327.69;5075827;28;1110;-31
2023/10/06 05:38:59;;;;;;;;;;;;;;;26.50;37.09;101328.66;5072306;28;1074;-38
2023/10/06 05:41:32;;;;;;;;;;;;;;;26.18;38.14;101322.13;5074704;28;2350;-35
2023/10/06 05:43:58;;;;;;;;;;;;;;;26.14;38.48;101326.16;5075449;28;1126;-34
2023/10/06 05:46:24;;;;;;;;;;;;;;;26.31;37.96;101331.59;5066858;28;1304;-30
2023/10/06 05:48:51;;;;;;;;;;;;;;;26.32;37.87;101328.75;5060140;28;1906;-34
2023/10/06 05:51:21;;;;;;;;;;;;;;;26.26;37.61;101332.94;5081897;28;1106;-37
2023/10/06 05:53:48;;;;;;;;;;;;;;;26.23;37.89;101329.72;5076004;28;1065;-35
2023/10/06 05:56:19;;;;;;;;;;;;;;;26.35;37.74;101333.84;5075877;28;1124;-32
2023/10/06 05:58:45;;;;;;;;;;;;;;;26.37;37.52;101339.06;5075798;28;1031;-30
2023/10/06 06:01:12;;;;;;;;;;;;;;;26.51;37.19;101345.66;5075656;28;1039;-32
2023/10/06 06:03:49;;;;;;;;;;;;;;;26.39;37.68;101355.94;5075618;28;1047;-34
2023/10/06 06:06:15;;;;;;;;;;;;;;;26.53;37.06;101351.75;5075706;28;1139;-34
2023/10/06 06:08:47;;;;;;;;;;;;;;;26.44;37.40;101359.00;5075862;28;1906;-36
2023/10/06 06:11:12;;;;;;;;;;;;;;;26.53;37.84;101362.53;5076260;28;2391;-32
2023/10/06 06:13:38;;;;;;;;;;;;;;;26.61;37.89;101357.16;5083678;28;1189;-30
2023/10/06 06:16:05;;;;;;;;;;;;;;;26.56;37.67;101361.38;5086915;28;1367;-28
2023/10/06 06:18:31;;;;;;;;;;;;;;;26.15;38.90;101358.34;5082134;28;1198;-28
2023/10/06 06:20:58;;;;;;;;;;;;;;;26.02;38.84;101357.94;5075973;28;1065;-33
2023/10/06 06:23:25;;;;;;;;;;;;;;;26.05;38.62;101357.63;5075115;28;1047;-33
2023/10/06 06:25:51;;;;;;;;;;;;;;;26.10;38.67;101362.53;5074864;28;1042;-28
2023/10/06 06:28:16;;;;;;;;;;;;;;;25.87;39.20;101360.38;5075520;28;1902;-29
2023/10/06 06:30:42;;;;;;;;;;;;;;;25.55;38.95;101354.59;5079543;28;1126;-34
2023/10/06 06:33:13;;;;;;;;;;;;;;;25.69;39.11;101353.22;5092779;28;1177;-31
2023/10/06 06:35:40;;;;;;;;;;;;;;;25.70;39.62;101354.03;5062795;28;1217;-27
2023/10/06 06:38:05;;;;;;;;;;;;;;;25.78;39.68;101357.66;5072652;28;1293;-30
2023/10/06 06:40:31;;;;;;;;;;;;;;;25.79;39.76;101361.19;5088030;28;1335;-30
2023/10/06 06:42:57;;;;;;;;;;;;;;;25.55;39.95;101351.91;5068552;28;2505;-31
2023/10/06 06:45:26;;;;;;;;;;;;;;;25.51;40.03;101356.75;5082964;28;1280;-34
2023/10/06 06:47:52;;;;;;;;;;;;;;;25.34;40.76;101352.25;5097081;28;1352;-29
2023/10/06 06:50:17;;;;;;;;;;;;;;;25.50;40.67;101363.16;5086920;28;1969;-30
2023/10/06 06:52:43;;;;;;;;;;;;;;;25.47;40.62;101359.94;5071762;28;1091;-34
2023/10/06 06:55:14;;;;;;;;;;;;;;;25.65;40.44;101362.59;5084557;28;1118;-31
2023/10/06 06:57:43;;;;;;;;;;;;;;;25.73;39.86;101364.50;5066373;28;1052;-29
2023/10/06 07:00:35;;;;;;;;;;;;;;;25.92;39.59;101358.06;5080798;28;1308;-31
2023/10/06 07:03:00;;;;;;;;;;;;;;;26.01;39.58;101350.84;5081680;28;1666;-30
2023/10/06 07:05:26;;;;;;;;;;;;;;;26.11;39.52;101356.13;5077003;28;1038;-34
2023/10/06 07:07:52;;;;;;;;;;;;;;;26.24;39.54;101358.38;5060928;28;1055;-31
2023/10/06 07:10:22;;;;;;;;;;;;;;;26.23;39.26;101346.75;5060980;28;1979;-27
2023/10/06 07:12:48;;;;;;;;;;;;;;;26.18;39.72;101351.78;5074973;28;2501;-29
2023/10/06 07:15:17;;;;;;;;;;;;;;;26.19;39.85;101344.53;5080589;28;1096;-29
2023/10/06 07:17:45;;;;;;;;;;;;;;;26.12;39.67;101347.88;5097941;28;1271;-28
2023/10/06 07:20:14;;;;;;;;;;;;;;;26.29;38.79;101342.56;5069211;28;1307;-28
2023/10/06 07:22:40;;;;;;;;;;;;;;;26.43;37.26;101351.03;5063356;28;1077;-31
2023/10/06 07:25:07;;;;;;;;;;;;;;;26.53;36.86;101347.22;5071398;28;1143;-30
2023/10/06 07:27:34;;;;;;;;;;;;;;;26.87;36.84;101345.44;5069732;28;1041;-32
2023/10/06 07:30:04;;;;;;;;;;;;;;;27.22;35.75;101330.94;5059097;28;1906;-35
2023/10/06 07:32:30;;;;;;;;;;;;;;;27.37;35.86;101339.22;5061105;28;1352;-32
2023/10/06 07:34:56;;;;;;;;;;;;;;;27.51;35.93;101340.34;5078748;28;1093;-31
2023/10/06 07:37:21;;;;;;;;;;;;;;;27.47;35.61;101347.13;5079414;28;999;-34
2023/10/06 07:39:47;;;;;;;;;;;;;;;27.28;35.59;101338.38;5063846;28;1108;-33
2023/10/06 07:42:16;;;;;;;;;;;;;;;27.35;35.36;101341.22;5076756;28;2410;-32
2023/10/06 07:44:45;;;;;;;;;;;;;;;27.40;36.11;101346.97;5067627;27;1139;-33
2023/10/06 07:47:10;;;;;;;;;;;;;;;27.39;35.97;101350.69;5091115;28;1245;-31
2023/10/06 07:49:36;;;;;;;;;;;;;;;27.25;35.91;101346.81;5096583;28;1910;-31
2023/10/06 07:52:04;;;;;;;;;;;;;;;27.32;35.71;101350.53;5091026;28;1269;-29
2023/10/06 07:54:32;;;;;;;;;;;;;;;27.38;36.05;101349.00;5062120;28;1465;-31
2023/10/06 07:56:58;;;;;;;;;;;;;;;27.39;35.38;101356.94;5064575;28;1100;-30
2023/10/06 07:59:23;;;;;;;;;;;;;;;27.38;36.06;101351.69;5071899;28;1066;-28
2023/10/06 08:01:49;;;;;;;;;;;;;;;27.67;34.29;101361.13;5069466;28;1304;-29
2023/10/06 08:04:14;;;;;;;;;;;;;;;27.85;34.27;101354.69;5068902;28;1089;-30
2023/10/06 08:06:40;;;;;;;;;;;;;;;27.71;34.23;101369.78;5071214;28;1075;-31
2023/10/06 08:09:05;;;;;;;;;;;;;;;27.77;34.57;101373.63;5072181;28;1910;-29
2023/10/06 08:11:34;;;;;;;;;;;;;;;27.61;34.37;101380.75;5063618;28;1973;-30
2023/10/06 08:13:59;;;;;;;;;;;;;;;27.71;33.78;101372.47;5075976;28;1340;-28
2023/10/06 08:16:30;;;;;;;;;;;;;;;27.54;33.70;101388.69;5076107;28;1412;-28
2023/10/06 08:18:55;;;;;;;;;;;;;;;27.47;33.80;101390.38;5060097;28;1163;-27
2023/10/06 08:21:22;;;;;;;;;;;;;;;27.50;33.90;101390.88;5061165;28;1109;-29
2023/10/06 08:23:48;;;;;;;;;;;;;;;27.52;33.41;101396.09;5057072;28;987;-30
2023/10/06 08:26:14;;;;;;;;;;;;;;;27.63;33.45;101392.19;5085737;28;1113;-30
2023/10/06 08:28:40;;;;;;;;;;;;;;;27.76;33.11;101397.09;5087258;28;1914;-30
2023/10/06 08:31:13;;;;;;;;;;;;;;;27.69;33.13;101401.53;5087764;28;1397;-27
2023/10/06 08:33:40;;;;;;;;;;;;;;;27.73;33.52;101408.25;5079879;28;1359;-29
2023/10/06 08:36:08;;;;;;;;;;;;;;;27.75;32.83;101412.50;5059522;28;1148;-30
2023/10/06 08:38:33;;;;;;;;;;;;;;;28.02;32.30;101417.69;5062428;28;1014;-29
2023/10/06 08:41:02;;;;;;;;;;;;;;;28.08;32.81;101406.16;5072092;28;1407;-29
2023/10/06 08:43:28;;;;;;;;;;;;;;;28.33;32.58;101407.97;5073186;28;2517;-28
2023/10/06 08:45:55;;;;;;;;;;;;;;;28.40;32.26;101399.97;5080682;28;1313;-30
2023/10/06 08:48:24;;;;;;;;;;;;;;;28.53;32.35;101404.84;5065321;28;1979;-31
2023/10/06 08:50:53;;;;;;;;;;;;;;;28.80;31.90;101400.81;5061085;28;1084;-28
2023/10/06 08:53:19;;;;;;;;;;;;;;;28.82;32.17;101387.94;5057582;28;1050;-30
2023/10/06 08:55:44;;;;;;;;;;;;;;;28.90;31.61;101399.72;5064882;28;1140;-33
2023/10/06 08:58:13;;;;;;;;;;;;;;;28.98;31.77;101396.97;5096126;28;1367;-31
2023/10/06 09:00:43;;;;;;;;;;;;;;;29.09;31.73;101390.31;5073750;28;1178;-31
2023/10/06 09:03:08;;;;;;;;;;;;;;;29.13;31.52;101393.50;5070621;28;1019;-33
2023/10/06 09:05:43;;;;;;;;;;;;;;;29.19;31.43;101388.22;5072283;28;1101;-32
2023/10/06 09:08:09;;;;;;;;;;;;;;;29.34;30.84;101390.94;5079157;28;1910;-28
2023/10/06 09:10:36;;;;;;;;;;;;;;;29.37;30.87;101381.63;5074849;28;1101;-28
2023/10/06 09:13:02;;;;;;;;;;;;;;;29.46;30.37;101390.53;5086732;28;1796;-29
2023/10/06 09:15:28;;;;;;;;;;;;;;;29.34;30.93;101384.69;5075588;28;980;-28
2023/10/06 09:17:56;;;;;;;;;;;;;;;29.14;31.60;101381.63;5076176;28;1187;-30
2023/10/06 09:20:32;;;;;;;;;;;;;;;29.18;31.64;101385.66;5075857;28;1038;-29
2023/10/06 09:22:58;;;;;;;;;;;;;;;29.51;30.82;101381.84;5075852;28;1046;-30
2023/10/06 09:25:24;;;;;;;;;;;;;;;29.30;31.19;101380.66;5075978;28;1073;-30
2023/10/06 09:28:08;;;;;;;;;;;;;;;29.46;31.24;101375.09;5075582;28;977;-31
2023/10/06 09:30:47;;;;;;;;;;;;;;;29.27;31.38;101371.03;5077590;28;1147;-32
2023/10/06 09:33:12;;;;;;;;;;;;;;;29.39;31.54;101370.59;5076108;28;1023;-31
2023/10/06 09:35:38;;;;;;;;;;;;;;;29.43;31.11;101369.19;5075880;28;1034;-29
2023/10/06 09:38:17;;;;;;;;;;;;;;;29.61;30.96;101374.31;5074504;28;1046;-28
2023/10/06 09:40:46;;;;;;;;;;;;;;;29.57;30.98;101372.97;5075479;28;873;-28
2023/10/06 09:43:13;;;;;;;;;;;;;;;29.77;30.68;101372.44;5080850;28;2900;-28
2023/10/06 09:45:40;;;;;;;;;;;;;;;29.79;30.25;101368.53;5074646;28;1223;-31
2023/10/06 09:48:06;;;;;;;;;;;;;;;29.91;30.25;101366.16;5074596;28;1909;-32
2023/10/06 09:50:31;;;;;;;;;;;;;;;29.89;30.41;101370.13;5074520;28;1086;-32
2023/10/06 09:52:56;;;;;;;;;;;;;;;30.07;30.17;101364.31;5084055;28;1022;-30
2023/10/06 09:55:22;;;;;;;;;;;;;;;30.23;29.55;101357.03;5112619;28;982;-29
2023/10/06 09:57:48;;;;;;;;;;;;;;;30.03;29.90;101349.44;5076142;28;1070;-28
2023/10/06 10:00:17;;;;;;;;;;;;;;;29.94;30.20;101348.69;5076029;28;1117;-29
2023/10/06 10:02:47;;;;;;;;;;;;;;;29.91;30.30;101344.47;5075718;28;1061;-30
2023/10/06 10:05:13;;;;;;;;;;;;;;;30.04;29.85;101341.13;5076460;28;1043;-27
2023/10/06 10:07:40;;;;;;;;;;;;;;;30.11;29.86;101343.91;5079202;28;1040;-29
2023/10/06 10:10:10;;;;;;;;;;;;;;;29.96;30.31;101340.38;5078543;28;1898;-32
2023/10/06 10:12:37;;;;;;;;;;;;;;;30.20;29.34;101336.53;5079397;28;2597;-28
2023/10/06 10:15:19;;;;;;;;;;;;;;;30.41;28.75;101334.91;5079766;28;1011;-33
2023/10/06 10:18:04;;;;;;;;;;;;;;;30.43;28.52;101336.38;5079609;28;939;-28
2023/10/06 10:20:32;;;;;;;;;;;;;;;30.02;29.90;101334.19;5067378;28;968;-31
2023/10/06 10:22:58;;;;;;;;;;;;;;;30.04;29.80;101324.00;5079217;28;1038;-28
2023/10/06 10:25:24;;;;;;;;;;;;;;;29.98;29.67;101327.47;5111829;28;1077;-34
2023/10/06 10:28:08;;;;;;;;;;;;;;;29.66;29.98;101319.53;5078465;28;1011;-32
2023/10/06 10:30:47;;;;;;;;;;;;;;;29.53;30.30;101328.28;5079265;28;1122;-30
2023/10/06 10:33:19;;;;;;;;;;;;;;;29.58;29.41;101334.81;5079865;28;1186;-33
2023/10/06 10:36:17;;;;;;;;;;;;;;;29.33;30.42;101332.34;5078987;28;987;-29
2023/10/06 10:38:43;;;;;;;;;;;;;;;29.34;30.24;101328.59;5057548;28;1163;-28
2023/10/06 10:41:09;;;;;;;;;;;;;;;29.34;30.33;101323.19;5078588;28;1947;-32
2023/10/06 10:43:37;;;;;;;;;;;;;;;29.48;29.80;101323.41;5086543;28;1190;-32
2023/10/06 10:46:09;;;;;;;;;;;;;;;29.39;30.29;101322.66;5080831;28;1005;-31
2023/10/06 10:48:37;;;;;;;;;;;;;;;29.27;31.17;101322.25;5078754;28;1894;-30
2023/10/06 10:51:11;;;;;;;;;;;;;;;29.32;30.94;101327.13;5078588;28;1082;-30
2023/10/06 10:53:47;;;;;;;;;;;;;;;29.57;30.44;101316.88;5078602;28;1019;-29
2023/10/06 10:56:26;;;;;;;;;;;;;;;29.68;30.38;101309.31;5078864;28;1125;-30
2023/10/06 10:58:53;;;;;;;;;;;;;;;30.01;30.36;101318.94;5078120;28;1057;-31
2023/10/06 11:01:29;;;;;;;;;;;;;;;30.38;29.73;101319.81;5078388;28;1186;-33
2023/10/06 11:04:13;;;;;;;;;;;;;;;30.56;29.25;101307.72;5078873;28;947;-31
2023/10/06 11:06:44;;;;;;;;;;;;;;;30.58;29.50;101307.50;5078662;28;1042;-33
2023/10/06 11:09:25;;;;;;;;;;;;;;;30.78;28.99;101303.09;5078015;28;1902;-30
2023/10/06 11:11:51;;;;;;;;;;;;;;;30.77;29.46;101306.00;5080205;28;2251;-29
2023/10/06 11:14:17;;;;;;;;;;;;;;;30.87;29.67;101317.44;5078345;28;1174;-31
2023/10/06 11:16:46;;;;;;;;;;;;;;;30.66;29.93;101304.66;5078022;28;1067;-30
2023/10/06 11:19:15;;;;;;;;;;;;;;;30.43;30.40;101306.53;5076236;28;1214;-28
2023/10/06 11:21:41;;;;;;;;;;;;;;;30.29;30.72;101308.28;5070688;28;1053;-27
2023/10/06 11:24:10;;;;;;;;;;;;;;;29.98;31.06;101309.31;5071822;28;999;-30
2023/10/06 11:26:36;;;;;;;;;;;;;;;29.60;32.19;101304.84;5097073;28;1307;-31
2023/10/06 11:29:02;;;;;;;;;;;;;;;30.02;31.46;101304.34;5086450;28;1951;-33
2023/10/06 11:31:28;;;;;;;;;;;;;;;30.16;31.63;101303.47;5069653;28;1101;-30
2023/10/06 11:33:57;;;;;;;;;;;;;;;30.50;30.81;101301.16;5086428;28;1274;-29
2023/10/06 11:36:23;;;;;;;;;;;;;;;29.91;31.85;101298.38;5080524;28;1410;-30
2023/10/06 11:38:48;;;;;;;;;;;;;;;30.01;31.77;101299.97;5074855;28;1168;-29
2023/10/06 11:41:27;;;;;;;;;;;;;;;29.81;32.20;101293.22;5082280;28;1957;-30
2023/10/06 11:43:53;;;;;;;;;;;;;;;29.70;32.45;101291.84;5077588;28;1148;-33
2023/10/06 11:46:19;;;;;;;;;;;;;;;29.30;33.17;101294.78;5075899;28;1441;-29
2023/10/06 11:48:44;;;;;;;;;;;;;;;29.53;33.01;101291.16;5083171;27;1883;-32
2023/10/06 11:51:12;;;;;;;;;;;;;;;29.36;33.12;101290.50;5072370;28;1312;-28
2023/10/06 11:53:39;;;;;;;;;;;;;;;28.63;33.80;101289.06;5078323;28;1165;-29
2023/10/06 11:56:05;;;;;;;;;;;;;;;28.99;33.24;101290.34;5086440;28;1444;-33
2023/10/06 11:58:32;;;;;;;;;;;;;;;29.26;32.58;101290.75;5070691;28;1424;-30
2023/10/06 12:00:58;;;;;;;;;;;;;;;29.37;32.45;101297.59;5058005;28;1077;-33
2023/10/06 12:03:39;;;;;;;;;;;;;;;28.88;33.06;101302.41;5074631;28;1281;-30
2023/10/06 12:06:07;;;;;;;;;;;;;;;28.97;32.86;101297.81;5087266;28;1252;-34
2023/10/06 12:08:40;;;;;;;;;;;;;;;29.26;32.71;101303.47;5086392;28;1988;-27
2023/10/06 12:11:05;;;;;;;;;;;;;;;29.54;32.47;101294.72;5076575;28;1130;-27
2023/10/06 12:13:32;;;;;;;;;;;;;;;29.56;32.40;101307.03;5082606;28;2228;-26
2023/10/06 12:15:57;;;;;;;;;;;;;;;29.42;33.93;101303.31;5076013;28;1072;-20
2023/10/06 12:18:23;;;;;;;;;;;;;;;29.51;33.84;101311.34;5076201;28;1110;-22
2023/10/06 12:20:48;;;;;;;;;;;;;;;29.57;33.10;101308.75;5076857;28;1130;-19
2023/10/06 12:23:14;;;;;;;;;;;;;;;29.33;33.76;101301.69;5077170;28;1131;-20
2023/10/06 12:25:40;;;;;;;;;;;;;;;29.52;33.81;101304.91;5069909;28;1376;-20
2023/10/06 12:28:05;;;;;;;;;;;;;;;29.77;34.04;101315.50;5082132;28;1105;-20
2023/10/06 12:30:31;;;;;;;;;;;;;;;29.73;33.27;101314.22;5085504;28;1914;-20
2023/10/06 12:32:58;;;;;;;;;;;;;;;29.65;33.36;101312.41;5092317;28;1169;-20
2023/10/06 12:35:28;;;;;;;;;;;;;;;29.59;34.11;101314.00;5089006;28;1300;-20
2023/10/06 12:37:54;;;;;;;;;;;;;;;29.68;34.31;101312.88;5095348;28;1081;-20
2023/10/06 12:40:19;;;;;;;;;;;;;;;29.48;34.58;101320.69;5072586;28;1125;-20
2023/10/06 12:42:45;;;;;;;;;;;;;;;29.51;36.37;101311.34;5086649;28;1732;-20
2023/10/06 12:45:17;;;;;;;;;;;;;;;29.50;34.18;101317.78;5075360;28;1158;-21
2023/10/06 12:47:52;;;;;;;;;;;;;;;29.56;35.96;101312.47;5107673;28;1034;-22
2023/10/06 12:50:19;;;;;;;;;;;;;;;29.61;34.48;101317.38;5076459;28;1906;-30
2023/10/06 12:52:49;;;;;;;;;;;;;;;29.42;35.41;101316.88;5079061;28;1112;-30
2023/10/06 12:55:15;;;;;;;;;;;;;;;29.57;34.93;101310.59;5085796;28;978;-27
2023/10/06 12:57:41;;;;;;;;;;;;;;;29.41;35.07;101317.06;5074882;28;1047;-28
2023/10/06 13:00:07;;;;;;;;;;;;;;;29.35;35.50;101326.75;5076232;28;1039;-27